Joyful Fortune — VRIH7 — position and weather

sailwx.info

Track history (hours):
 
Tides and Currents Weather Stations Pressure Air Temp Water Temp Dewpoint Dewpoint Depression Visibility Wind Speed Wind Dir Waves Ship Positions

Joyful Fortune

Last reported at 2018-Jan-24 10:59 UTC. Time now 2018-Jan-24 11:18 UTC.
Position N 34°42' E 135°15'.

Length 110 m; draft 7.4 m.

Type: Cargo ship. MMSI: 477861200.

Date/timePositionNaut miles runAvg speedWind from/ knotsBaromVisibWave heightAir tempDewpointWater temp
2018-Jan-24 10:59N 34°42' E 135°15'0 0.0
2018-Jan-24 10:29N 34°42' E 135°15'0 0.0
2018-Jan-24 09:59N 34°42' E 135°15'0 0.0
2018-Jan-24 09:29N 34°42' E 135°15'0 0.0
2018-Jan-24 08:59N 34°42' E 135°15'0 0.0
2018-Jan-24 08:29N 34°42' E 135°15'0 0.0
2018-Jan-24 07:59N 34°42' E 135°15'0 0.0
2018-Jan-24 07:29N 34°42' E 135°15'0 0.0
2018-Jan-24 06:59N 34°42' E 135°15'0 0.0
2018-Jan-24 06:29N 34°42' E 135°15'0 0.0
2018-Jan-24 05:59N 34°42' E 135°15'0 0.0
2018-Jan-24 05:29N 34°42' E 135°15'0 0.0
2018-Jan-24 05:00N 34°42' E 135°15'1 2.5
2018-Jan-24 04:30N 34°41' E 135°15'3 5.1
2018-Jan-24 04:00N 34°38' E 135°16'3 5.2
2018-Jan-24 03:30N 34°37' E 135°14'0 0.7
2018-Jan-24 02:59N 34°37' E 135°13'0 0.1
2018-Jan-24 02:29N 34°37' E 135°13'0 0.0
2018-Jan-24 01:59N 34°37' E 135°13'0 0.0
2018-Jan-24 01:29N 34°37' E 135°13'0 0.0
2018-Jan-24 00:59N 34°37' E 135°13'0 0.1
2018-Jan-24 00:30N 34°37' E 135°13'1 2.5
2018-Jan-24 00:00N 34°36' E 135°12'4 8.5
2018-Jan-23 23:30N 34°34' E 135°08'5 9.5
2018-Jan-23 23:00N 34°36' E 135°03'611.3
2018-Jan-23 22:31N 34°36' E 134°56'611.7
2018-Jan-23 22:00N 34°39' E 134°50'3 6.6
2018-Jan-23 21:31N 34°42' E 134°48'1 0.2
2018-Jan-23 16:44N 34°43' E 134°49'0 0.0
2018-Jan-23 16:11N 34°43' E 134°49'0 0.0
2018-Jan-23 15:53N 34°43' E 134°49'0 0.0
2018-Jan-23 15:17N 34°43' E 134°49'0 0.0
2018-Jan-23 07:02N 34°43' E 134°49'0 0.0
2018-Jan-23 06:44N 34°43' E 134°49'0 0.0
2018-Jan-23 06:20N 34°43' E 134°49'0 0.0
2018-Jan-22 22:17N 34°43' E 134°49'0 0.0
2018-Jan-22 21:53N 34°43' E 134°49'0 0.0
2018-Jan-22 19:11N 34°43' E 134°49'0 0.0
2018-Jan-22 16:04N 34°43' E 134°49'0 0.0
2018-Jan-22 15:47N 34°43' E 134°49'0 0.0
2018-Jan-22 15:29N 34°43' E 134°49'0 0.0
2018-Jan-22 14:59N 34°43' E 134°49'0 0.0
2018-Jan-22 14:29N 34°43' E 134°49'0 0.0
2018-Jan-22 02:37N 34°43' E 134°49'0 0.0
2018-Jan-22 01:19N 34°43' E 134°49'0 0.0
2018-Jan-21 21:13N 34°43' E 134°49'0 0.0
2018-Jan-21 18:58N 34°43' E 134°49'0 0.0
2018-Jan-21 18:28N 34°43' E 134°49'0 0.0
2018-Jan-21 16:55N 34°43' E 134°49'0 0.0
2018-Jan-21 16:19N 34°43' E 134°49'0 0.0
2018-Jan-21 15:52N 34°43' E 134°49'0 0.0
2018-Jan-21 13:13N 34°43' E 134°49'0 0.0
2018-Jan-21 12:49N 34°43' E 134°49'0 0.0
2018-Jan-21 10:22N 34°43' E 134°49'0 0.0
2018-Jan-21 08:25N 34°43' E 134°49'0 0.0
2018-Jan-21 07:43N 34°43' E 134°49'0 0.0
2018-Jan-21 07:28N 34°43' E 134°49'0 0.0
2018-Jan-20 16:31N 34°43' E 134°49'0 0.0
2018-Jan-20 07:55N 34°43' E 134°49'2 4.8
2018-Jan-20 07:31N 34°41' E 134°47'0 0.3
2018-Jan-20 07:00N 34°41' E 134°47'0 0.0
2018-Jan-20 06:27N 34°41' E 134°47'0 0.0
2018-Jan-20 06:00N 34°41' E 134°47'0 0.0
2018-Jan-20 05:30N 34°41' E 134°47'0 0.0
2018-Jan-20 05:00N 34°41' E 134°47'0 0.0
2018-Jan-20 04:30N 34°41' E 134°47'0 0.0
2018-Jan-20 04:00N 34°41' E 134°47'0 0.0
2018-Jan-20 03:30N 34°41' E 134°47'0 0.1
2018-Jan-20 03:00N 34°41' E 134°47'0 0.1
2018-Jan-20 02:29N 34°41' E 134°47'0 0.0
2018-Jan-20 02:00N 34°41' E 134°47'0 0.0
2018-Jan-20 01:29N 34°41' E 134°47'0 0.0
2018-Jan-20 01:00N 34°41' E 134°47'0 0.0
2018-Jan-20 00:30N 34°41' E 134°47'0 0.0
2018-Jan-20 00:01N 34°41' E 134°47'0 0.0
2018-Jan-19 23:30N 34°41' E 134°47'0 0.0
2018-Jan-19 23:00N 34°41' E 134°47'0 0.9
2018-Jan-19 22:30N 34°41' E 134°47'5 8.9
2018-Jan-19 21:59N 34°38' E 134°42'511.5
2018-Jan-19 21:31N 34°35' E 134°37'611.5
2018-Jan-19 21:00N 34°31' E 134°31'611.5
2018-Jan-19 20:30N 34°27' E 134°26'611.6
2018-Jan-19 20:00N 34°24' E 134°21'712.2
2018-Jan-19 19:25N 34°24' E 134°12'7111.5
2018-Jan-19 13:13N 34°04' E 132°49'413.4
2018-Jan-19 12:57N 34°01' E 132°46'612.9
2018-Jan-19 12:31N 33°57' E 132°42'713.2
2018-Jan-19 11:59N 33°52' E 132°36'3711.3
2018-Jan-19 08:42N 33°44' E 131°52'211.9
2018-Jan-19 08:30N 33°44' E 131°49'712.1
2018-Jan-19 07:57N 33°46' E 131°41'612.3
2018-Jan-19 07:30N 33°47' E 131°35'612.3
2018-Jan-19 07:01N 33°48' E 131°28'612.2
2018-Jan-19 06:31N 33°49' E 131°21'612.4
2018-Jan-19 06:01N 33°51' E 131°13'612.3
2018-Jan-19 05:30N 33°54' E 131°07'611.7
2018-Jan-19 05:01N 33°58' E 131°02'4 8.9
2018-Jan-19 04:31N 33°56' E 130°57'3 6.2
2018-Jan-19 04:00N 33°54' E 130°54'4 7.6
2018-Jan-19 03:30N 33°57' E 130°51'5 9.9
2018-Jan-19 03:00N 34°02' E 130°48'510.6
2018-Jan-19 02:30N 34°03' E 130°42'510.6
2018-Jan-19 02:00N 34°03' E 130°36'510.6
2018-Jan-19 01:30N 34°02' E 130°29'510.3
2018-Jan-19 01:00N 34°02' E 130°23'510.4
2018-Jan-19 00:30N 34°02' E 130°17'610.4
2018-Jan-18 23:57N 34°02' E 130°10'510.5
2018-Jan-18 23:30N 34°02' E 130°04'  
Track history (hours):
 
Tides and Currents Weather Stations Pressure Air Temp Water Temp Dewpoint Dewpoint Depression Visibility Wind Speed Wind Dir Waves Ship Positions

Joyful Fortune

Last reported at 2018-Jan-24 10:59 UTC. Time now 2018-Jan-24 11:18 UTC.
Position N 34°42' E 135°15'.

Length 110 m; draft 7.4 m.

Type: Cargo ship. MMSI: 477861200.

Date/timePositionNaut miles runAvg speedWind from/ knotsBaromVisibWave heightAir tempDewpointWater temp
2018-Jan-24 10:59N 34°42' E 135°15'0 0.0
2018-Jan-24 10:29N 34°42' E 135°15'0 0.0
2018-Jan-24 09:59N 34°42' E 135°15'0 0.0
2018-Jan-24 09:29N 34°42' E 135°15'0 0.0
2018-Jan-24 08:59N 34°42' E 135°15'0 0.0
2018-Jan-24 08:29N 34°42' E 135°15'0 0.0
2018-Jan-24 07:59N 34°42' E 135°15'0 0.0
2018-Jan-24 07:29N 34°42' E 135°15'0 0.0
2018-Jan-24 06:59N 34°42' E 135°15'0 0.0
2018-Jan-24 06:29N 34°42' E 135°15'0 0.0
2018-Jan-24 05:59N 34°42' E 135°15'0 0.0
2018-Jan-24 05:29N 34°42' E 135°15'0 0.0
2018-Jan-24 05:00N 34°42' E 135°15'1 2.5
2018-Jan-24 04:30N 34°41' E 135°15'3 5.1
2018-Jan-24 04:00N 34°38' E 135°16'3 5.2
2018-Jan-24 03:30N 34°37' E 135°14'0 0.7
2018-Jan-24 02:59N 34°37' E 135°13'0 0.1
2018-Jan-24 02:29N 34°37' E 135°13'0 0.0
2018-Jan-24 01:59N 34°37' E 135°13'0 0.0
2018-Jan-24 01:29N 34°37' E 135°13'0 0.0
2018-Jan-24 00:59N 34°37' E 135°13'0 0.1
2018-Jan-24 00:30N 34°37' E 135°13'1 2.5
2018-Jan-24 00:00N 34°36' E 135°12'4 8.5
2018-Jan-23 23:30N 34°34' E 135°08'5 9.5
2018-Jan-23 23:00N 34°36' E 135°03'611.3
2018-Jan-23 22:31N 34°36' E 134°56'611.7
2018-Jan-23 22:00N 34°39' E 134°50'3 6.6
2018-Jan-23 21:31N 34°42' E 134°48'1 0.2
2018-Jan-23 16:44N 34°43' E 134°49'0 0.0
2018-Jan-23 16:11N 34°43' E 134°49'0 0.0
2018-Jan-23 15:53N 34°43' E 134°49'0 0.0
2018-Jan-23 15:17N 34°43' E 134°49'0 0.0
2018-Jan-23 07:02N 34°43' E 134°49'0 0.0
2018-Jan-23 06:44N 34°43' E 134°49'0 0.0
2018-Jan-23 06:20N 34°43' E 134°49'0 0.0
2018-Jan-22 22:17N 34°43' E 134°49'0 0.0
2018-Jan-22 21:53N 34°43' E 134°49'0 0.0
2018-Jan-22 19:11N 34°43' E 134°49'0 0.0
2018-Jan-22 16:04N 34°43' E 134°49'0 0.0
2018-Jan-22 15:47N 34°43' E 134°49'0 0.0
2018-Jan-22 15:29N 34°43' E 134°49'0 0.0
2018-Jan-22 14:59N 34°43' E 134°49'0 0.0
2018-Jan-22 14:29N 34°43' E 134°49'0 0.0
2018-Jan-22 02:37N 34°43' E 134°49'0 0.0
2018-Jan-22 01:19N 34°43' E 134°49'0 0.0
2018-Jan-21 21:13N 34°43' E 134°49'0 0.0
2018-Jan-21 18:58N 34°43' E 134°49'0 0.0
2018-Jan-21 18:28N 34°43' E 134°49'0 0.0
2018-Jan-21 16:55N 34°43' E 134°49'0 0.0
2018-Jan-21 16:19N 34°43' E 134°49'0 0.0
2018-Jan-21 15:52N 34°43' E 134°49'0 0.0
2018-Jan-21 13:13N 34°43' E 134°49'0 0.0
2018-Jan-21 12:49N 34°43' E 134°49'0 0.0
2018-Jan-21 10:22N 34°43' E 134°49'0 0.0
2018-Jan-21 08:25N 34°43' E 134°49'0 0.0
2018-Jan-21 07:43N 34°43' E 134°49'0 0.0
2018-Jan-21 07:28N 34°43' E 134°49'0 0.0
2018-Jan-20 16:31N 34°43' E 134°49'0 0.0
2018-Jan-20 07:55N 34°43' E 134°49'2 4.8
2018-Jan-20 07:31N 34°41' E 134°47'0 0.3
2018-Jan-20 07:00N 34°41' E 134°47'0 0.0
2018-Jan-20 06:27N 34°41' E 134°47'0 0.0
2018-Jan-20 06:00N 34°41' E 134°47'0 0.0
2018-Jan-20 05:30N 34°41' E 134°47'0 0.0
2018-Jan-20 05:00N 34°41' E 134°47'0 0.0
2018-Jan-20 04:30N 34°41' E 134°47'0 0.0
2018-Jan-20 04:00N 34°41' E 134°47'0 0.0
2018-Jan-20 03:30N 34°41' E 134°47'0 0.1
2018-Jan-20 03:00N 34°41' E 134°47'0 0.1
2018-Jan-20 02:29N 34°41' E 134°47'0 0.0
2018-Jan-20 02:00N 34°41' E 134°47'0 0.0
2018-Jan-20 01:29N 34°41' E 134°47'0 0.0
2018-Jan-20 01:00N 34°41' E 134°47'0 0.0
2018-Jan-20 00:30N 34°41' E 134°47'0 0.0
2018-Jan-20 00:01N 34°41' E 134°47'0 0.0
2018-Jan-19 23:30N 34°41' E 134°47'0 0.0
2018-Jan-19 23:00N 34°41' E 134°47'0 0.9
2018-Jan-19 22:30N 34°41' E 134°47'5 8.9
2018-Jan-19 21:59N 34°38' E 134°42'511.5
2018-Jan-19 21:31N 34°35' E 134°37'611.5
2018-Jan-19 21:00N 34°31' E 134°31'611.5
2018-Jan-19 20:30N 34°27' E 134°26'611.6
2018-Jan-19 20:00N 34°24' E 134°21'712.2
2018-Jan-19 19:25N 34°24' E 134°12'7111.5
2018-Jan-19 13:13N 34°04' E 132°49'413.4
2018-Jan-19 12:57N 34°01' E 132°46'612.9
2018-Jan-19 12:31N 33°57' E 132°42'713.2
2018-Jan-19 11:59N 33°52' E 132°36'3711.3
2018-Jan-19 08:42N 33°44' E 131°52'211.9
2018-Jan-19 08:30N 33°44' E 131°49'712.1
2018-Jan-19 07:57N 33°46' E 131°41'612.3
2018-Jan-19 07:30N 33°47' E 131°35'612.3
2018-Jan-19 07:01N 33°48' E 131°28'612.2
2018-Jan-19 06:31N 33°49' E 131°21'612.4
2018-Jan-19 06:01N 33°51' E 131°13'612.3
2018-Jan-19 05:30N 33°54' E 131°07'611.7
2018-Jan-19 05:01N 33°58' E 131°02'4 8.9
2018-Jan-19 04:31N 33°56' E 130°57'3 6.2
2018-Jan-19 04:00N 33°54' E 130°54'4 7.6
2018-Jan-19 03:30N 33°57' E 130°51'5 9.9
2018-Jan-19 03:00N 34°02' E 130°48'510.6
2018-Jan-19 02:30N 34°03' E 130°42'510.6
2018-Jan-19 02:00N 34°03' E 130°36'510.6
2018-Jan-19 01:30N 34°02' E 130°29'510.3
2018-Jan-19 01:00N 34°02' E 130°23'510.4
2018-Jan-19 00:30N 34°02' E 130°17'610.4
2018-Jan-18 23:57N 34°02' E 130°10'510.5
2018-Jan-18 23:30N 34°02' E 130°04'  

Dump ship's entire track history